Terminal Aerodrome Forecast
Issued by NWS Cleveland, OH

Home | Current Version | Previous Version | Graphics & Text | Print | Product List | Glossary Off
Versions: 1 2 3 4 5 6 7 8 9 10 11 12

000
FTUS41 KCLE 282320
TAFCAK
TAF
KCAK 282320Z 2900/2924 20005KT P6SM SCT050 OVC200
     FM290200 VRB02KT P6SM OVC200
      TEMPO 2905/2907 5SM BR
     FM290700 VRB02KT 4SM BR BKN200
      TEMPO 2907/2910 2SM BR
     FM291000 VRB02KT 2SM BR BKN200
      TEMPO 2910/2913 3/4SM BR
     FM291400 30004KT 5SM BR SCT040 BKN100
     FM291800 33008KT P6SM VCTS BKN045CB=

USA.gov is the U.S. government's official web portal to all federal, state and local government web resources and services.